sensor_id;sensor_type;location;lat;lon;timestamp;temperature;humidity
52869;DHT22;39100;53.480;6.158;2023-02-01T00:00:13;6.30;99.90
52869;DHT22;39100;53.480;6.158;2023-02-01T00:02:38;6.30;99.90
52869;DHT22;39100;53.480;6.158;2023-02-01T00:05:08;6.30;99.90
52869;DHT22;39100;53.480;6.158;2023-02-01T00:07:34;6.30;99.90
52869;DHT22;39100;53.480;6.158;2023-02-01T00:10:00;6.30;99.90
52869;DHT22;39100;53.480;6.158;2023-02-01T00:12:25;6.30;99.90
52869;DHT22;39100;53.480;6.158;2023-02-01T00:14:51;6.30;99.90
52869;DHT22;39100;53.480;6.158;2023-02-01T00:17:16;6.40;99.90
52869;DHT22;39100;53.480;6.158;2023-02-01T00:19:42;6.30;99.90
52869;DHT22;39100;53.480;6.158;2023-02-01T00:22:07;6.30;99.90
52869;DHT22;39100;53.480;6.158;2023-02-01T00:24:33;6.30;99.90
52869;DHT22;39100;53.480;6.158;2023-02-01T00:26:58;6.40;99.90
52869;DHT22;39100;53.480;6.158;2023-02-01T00:29:24;6.40;99.90
52869;DHT22;39100;53.480;6.158;2023-02-01T00:31:51;6.40;99.90
52869;DHT22;39100;53.480;6.158;2023-02-01T00:34:17;6.40;99.90
52869;DHT22;39100;53.480;6.158;2023-02-01T00:36:44;6.40;99.90
52869;DHT22;39100;53.480;6.158;2023-02-01T00:39:10;6.40;99.90
52869;DHT22;39100;53.480;6.158;2023-02-01T00:41:36;6.40;99.90
52869;DHT22;39100;53.480;6.158;2023-02-01T00:44:02;6.40;99.90
52869;DHT22;39100;53.480;6.158;2023-02-01T00:46:28;6.40;99.90
52869;DHT22;39100;53.480;6.158;2023-02-01T00:48:53;6.40;99.90
52869;DHT22;39100;53.480;6.158;2023-02-01T00:51:21;6.40;99.90
52869;DHT22;39100;53.480;6.158;2023-02-01T00:53:47;6.50;99.90
52869;DHT22;39100;53.480;6.158;2023-02-01T00:56:13;6.50;99.90
52869;DHT22;39100;53.480;6.158;2023-02-01T00:58:39;6.50;99.90
52869;DHT22;39100;53.480;6.158;2023-02-01T01:01:06;6.50;99.90
52869;DHT22;39100;53.480;6.158;2023-02-01T01:03:34;6.50;99.90
52869;DHT22;39100;53.480;6.158;2023-02-01T01:06:02;6.50;99.90
52869;DHT22;39100;53.480;6.158;2023-02-01T01:08:28;6.50;99.90
52869;DHT22;39100;53.480;6.158;2023-02-01T01:10:54;6.50;99.90
52869;DHT22;39100;53.480;6.158;2023-02-01T01:13:20;6.50;99.90
52869;DHT22;39100;53.480;6.158;2023-02-01T01:15:46;6.40;99.90
52869;DHT22;39100;53.480;6.158;2023-02-01T01:18:11;6.40;99.90
52869;DHT22;39100;53.480;6.158;2023-02-01T01:20:39;6.40;99.90
52869;DHT22;39100;53.480;6.158;2023-02-01T01:23:06;6.40;99.90
52869;DHT22;39100;53.480;6.158;2023-02-01T01:25:32;6.30;99.90
52869;DHT22;39100;53.480;6.158;2023-02-01T01:28:01;6.30;99.90
52869;DHT22;39100;53.480;6.158;2023-02-01T01:30:27;6.30;99.90
52869;DHT22;39100;53.480;6.158;2023-02-01T01:32:52;6.30;99.90
52869;DHT22;39100;53.480;6.158;2023-02-01T01:35:18;6.30;99.90
52869;DHT22;39100;53.480;6.158;2023-02-01T01:37:44;6.30;99.90
52869;DHT22;39100;53.480;6.158;2023-02-01T01:40:10;6.30;99.90
52869;DHT22;39100;53.480;6.158;2023-02-01T01:42:43;6.30;99.90
52869;DHT22;39100;53.480;6.158;2023-02-01T01:45:51;6.20;99.90
52869;DHT22;39100;53.480;6.158;2023-02-01T01:48:04;6.20;99.90
52869;DHT22;39100;53.480;6.158;2023-02-01T01:50:36;6.20;99.90
52869;DHT22;39100;53.480;6.158;2023-02-01T01:53:06;6.20;99.90
52869;DHT22;39100;53.480;6.158;2023-02-01T01:55:36;6.20;99.90
52869;DHT22;39100;53.480;6.158;2023-02-01T01:58:06;6.20;99.90
52869;DHT22;39100;53.480;6.158;2023-02-01T02:00:33;6.20;99.90
52869;DHT22;39100;53.480;6.158;2023-02-01T02:03:07;6.10;99.90
52869;DHT22;39100;53.480;6.158;2023-02-01T02:05:34;6.10;99.90
52869;DHT22;39100;53.480;6.158;2023-02-01T02:08:00;6.10;99.90
52869;DHT22;39100;53.480;6.158;2023-02-01T02:10:26;6.00;99.90
52869;DHT22;39100;53.480;6.158;2023-02-01T02:13:13;6.00;99.90
52869;DHT22;39100;53.480;6.158;2023-02-01T02:15:45;6.00;99.90
52869;DHT22;39100;53.480;6.158;2023-02-01T02:18:24;6.00;99.90
52869;DHT22;39100;53.480;6.158;2023-02-01T02:24:02;6.00;99.90
52869;DHT22;39100;53.480;6.158;2023-02-01T02:26:37;6.00;99.90
52869;DHT22;39100;53.480;6.158;2023-02-01T02:32:01;6.00;99.90
52869;DHT22;39100;53.480;6.158;2023-02-01T02:34:44;6.00;99.90
52869;DHT22;39100;53.480;6.158;2023-02-01T02:45:37;6.10;99.90
52869;DHT22;39100;53.480;6.158;2023-02-01T02:48:38;6.30;99.90
52869;DHT22;39100;53.480;6.158;2023-02-01T02:51:17;6.10;99.90
52869;DHT22;39100;53.480;6.158;2023-02-01T02:54:10;6.10;99.90
52869;DHT22;39100;53.480;6.158;2023-02-01T02:56:57;6.10;99.90
52869;DHT22;39100;53.480;6.158;2023-02-01T02:59:44;6.10;99.90
52869;DHT22;39100;53.480;6.158;2023-02-01T03:02:30;6.20;99.90
52869;DHT22;39100;53.480;6.158;2023-02-01T03:05:15;6.20;99.90
52869;DHT22;39100;53.480;6.158;2023-02-01T03:16:15;6.30;99.90
52869;DHT22;39100;53.480;6.158;2023-02-01T03:19:00;6.20;99.90
52869;DHT22;39100;53.480;6.158;2023-02-01T03:21:39;6.20;99.90
52869;DHT22;39100;53.480;6.158;2023-02-01T03:24:14;6.20;99.90
52869;DHT22;39100;53.480;6.158;2023-02-01T03:26:48;6.20;99.90
52869;DHT22;39100;53.480;6.158;2023-02-01T03:29:21;6.10;99.90
52869;DHT22;39100;53.480;6.158;2023-02-01T03:31:48;6.00;99.90
52869;DHT22;39100;53.480;6.158;2023-02-01T03:34:13;6.00;99.90
52869;DHT22;39100;53.480;6.158;2023-02-01T03:36:48;6.00;99.90
52869;DHT22;39100;53.480;6.158;2023-02-01T03:42:00;6.00;99.90
52869;DHT22;39100;53.480;6.158;2023-02-01T03:44:52;6.00;99.90
52869;DHT22;39100;53.480;6.158;2023-02-01T03:47:28;6.00;99.90
52869;DHT22;39100;53.480;6.158;2023-02-01T03:50:04;6.00;99.90
52869;DHT22;39100;53.480;6.158;2023-02-01T03:52:45;6.00;99.90
52869;DHT22;39100;53.480;6.158;2023-02-01T03:55:15;6.00;99.90
52869;DHT22;39100;53.480;6.158;2023-02-01T03:57:46;6.00;99.90
52869;DHT22;39100;53.480;6.158;2023-02-01T04:00:19;6.00;99.90
52869;DHT22;39100;53.480;6.158;2023-02-01T04:02:45;6.00;99.90
52869;DHT22;39100;53.480;6.158;2023-02-01T04:05:10;6.00;99.90
52869;DHT22;39100;53.480;6.158;2023-02-01T04:07:36;6.00;99.90
52869;DHT22;39100;53.480;6.158;2023-02-01T04:10:02;6.20;99.90
52869;DHT22;39100;53.480;6.158;2023-02-01T04:12:28;6.00;99.90
52869;DHT22;39100;53.480;6.158;2023-02-01T04:14:54;5.90;99.90
52869;DHT22;39100;53.480;6.158;2023-02-01T04:17:20;6.00;99.90
52869;DHT22;39100;53.480;6.158;2023-02-01T04:19:45;6.00;99.90
52869;DHT22;39100;53.480;6.158;2023-02-01T04:22:11;6.00;99.90
52869;DHT22;39100;53.480;6.158;2023-02-01T04:24:37;6.00;99.90
52869;DHT22;39100;53.480;6.158;2023-02-01T04:27:03;6.00;99.90
52869;DHT22;39100;53.480;6.158;2023-02-01T04:29:29;6.00;99.90
52869;DHT22;39100;53.480;6.158;2023-02-01T04:31:54;6.00;99.90
52869;DHT22;39100;53.480;6.158;2023-02-01T04:34:20;6.00;99.90
52869;DHT22;39100;53.480;6.158;2023-02-01T04:36:48;6.10;99.90
52869;DHT22;39100;53.480;6.158;2023-02-01T04:39:14;6.10;99.90
52869;DHT22;39100;53.480;6.158;2023-02-01T04:41:39;6.10;99.90
52869;DHT22;39100;53.480;6.158;2023-02-01T04:44:05;6.10;99.90
52869;DHT22;39100;53.480;6.158;2023-02-01T04:46:31;6.10;99.90
52869;DHT22;39100;53.480;6.158;2023-02-01T04:48:56;6.20;99.90
52869;DHT22;39100;53.480;6.158;2023-02-01T04:51:22;6.20;99.90
52869;DHT22;39100;53.480;6.158;2023-02-01T04:53:48;6.20;99.90
52869;DHT22;39100;53.480;6.158;2023-02-01T04:56:13;6.20;99.90
52869;DHT22;39100;53.480;6.158;2023-02-01T04:58:39;6.20;99.90
52869;DHT22;39100;53.480;6.158;2023-02-01T05:01:05;6.30;99.90
52869;DHT22;39100;53.480;6.158;2023-02-01T05:03:32;6.30;99.90
52869;DHT22;39100;53.480;6.158;2023-02-01T05:05:58;6.30;99.90
52869;DHT22;39100;53.480;6.158;2023-02-01T05:08:24;6.30;99.90
52869;DHT22;39100;53.480;6.158;2023-02-01T05:10:51;6.30;99.90
52869;DHT22;39100;53.480;6.158;2023-02-01T05:13:16;6.30;99.90
52869;DHT22;39100;53.480;6.158;2023-02-01T05:16:00;6.30;99.90
52869;DHT22;39100;53.480;6.158;2023-02-01T05:18:26;6.40;99.90
52869;DHT22;39100;53.480;6.158;2023-02-01T05:20:52;6.40;99.90
52869;DHT22;39100;53.480;6.158;2023-02-01T05:23:17;6.40;99.90
52869;DHT22;39100;53.480;6.158;2023-02-01T05:25:43;6.40;99.90
52869;DHT22;39100;53.480;6.158;2023-02-01T05:28:08;6.40;99.90
52869;DHT22;39100;53.480;6.158;2023-02-01T05:30:34;6.40;99.90
52869;DHT22;39100;53.480;6.158;2023-02-01T05:33:03;6.50;99.90
52869;DHT22;39100;53.480;6.158;2023-02-01T05:35:29;6.50;99.90
52869;DHT22;39100;53.480;6.158;2023-02-01T05:37:54;6.50;99.90
52869;DHT22;39100;53.480;6.158;2023-02-01T05:40:20;6.40;99.90
52869;DHT22;39100;53.480;6.158;2023-02-01T05:42:45;6.40;99.90
52869;DHT22;39100;53.480;6.158;2023-02-01T05:45:11;6.40;99.90
52869;DHT22;39100;53.480;6.158;2023-02-01T05:47:37;6.40;99.90
52869;DHT22;39100;53.480;6.158;2023-02-01T05:50:03;6.30;99.90
52869;DHT22;39100;53.480;6.158;2023-02-01T05:52:29;6.30;99.90
52869;DHT22;39100;53.480;6.158;2023-02-01T05:54:55;6.30;99.90
52869;DHT22;39100;53.480;6.158;2023-02-01T05:57:20;6.30;99.90
52869;DHT22;39100;53.480;6.158;2023-02-01T05:59:46;6.30;99.90
52869;DHT22;39100;53.480;6.158;2023-02-01T06:02:14;6.30;99.90
52869;DHT22;39100;53.480;6.158;2023-02-01T06:04:40;6.30;99.90
52869;DHT22;39100;53.480;6.158;2023-02-01T06:07:06;6.30;99.90
52869;DHT22;39100;53.480;6.158;2023-02-01T06:09:33;6.30;99.90
52869;DHT22;39100;53.480;6.158;2023-02-01T06:11:59;6.30;99.90
52869;DHT22;39100;53.480;6.158;2023-02-01T06:14:26;6.30;99.90
52869;DHT22;39100;53.480;6.158;2023-02-01T06:16:53;6.30;99.90
52869;DHT22;39100;53.480;6.158;2023-02-01T06:19:19;6.30;99.90
52869;DHT22;39100;53.480;6.158;2023-02-01T06:21:44;6.30;99.90
52869;DHT22;39100;53.480;6.158;2023-02-01T06:24:11;6.40;99.90
52869;DHT22;39100;53.480;6.158;2023-02-01T06:26:36;6.40;99.90
52869;DHT22;39100;53.480;6.158;2023-02-01T06:29:02;6.40;99.90
52869;DHT22;39100;53.480;6.158;2023-02-01T06:31:28;6.40;99.90
52869;DHT22;39100;53.480;6.158;2023-02-01T06:33:53;6.50;99.90
52869;DHT22;39100;53.480;6.158;2023-02-01T06:36:19;6.50;99.90
52869;DHT22;39100;53.480;6.158;2023-02-01T06:38:47;6.50;99.90
52869;DHT22;39100;53.480;6.158;2023-02-01T06:41:13;6.50;99.90
52869;DHT22;39100;53.480;6.158;2023-02-01T06:43:39;6.50;99.90
52869;DHT22;39100;53.480;6.158;2023-02-01T06:46:07;6.50;99.90
52869;DHT22;39100;53.480;6.158;2023-02-01T06:48:33;6.50;99.90
52869;DHT22;39100;53.480;6.158;2023-02-01T06:50:59;6.50;99.90
52869;DHT22;39100;53.480;6.158;2023-02-01T06:53:25;6.50;99.90
52869;DHT22;39100;53.480;6.158;2023-02-01T06:55:57;6.50;99.90
52869;DHT22;39100;53.480;6.158;2023-02-01T06:58:23;6.50;99.90
52869;DHT22;39100;53.480;6.158;2023-02-01T07:00:48;6.50;99.90
52869;DHT22;39100;53.480;6.158;2023-02-01T07:03:14;6.40;99.90
52869;DHT22;39100;53.480;6.158;2023-02-01T07:05:40;6.40;99.90
52869;DHT22;39100;53.480;6.158;2023-02-01T07:08:05;6.50;99.90
52869;DHT22;39100;53.480;6.158;2023-02-01T07:10:31;6.40;99.90
52869;DHT22;39100;53.480;6.158;2023-02-01T07:12:57;6.40;99.90
52869;DHT22;39100;53.480;6.158;2023-02-01T07:15:23;6.50;99.90
52869;DHT22;39100;53.480;6.158;2023-02-01T07:17:49;6.40;99.90
52869;DHT22;39100;53.480;6.158;2023-02-01T07:20:15;6.40;99.90
52869;DHT22;39100;53.480;6.158;2023-02-01T07:22:41;6.40;99.90
52869;DHT22;39100;53.480;6.158;2023-02-01T07:25:07;6.40;99.90
52869;DHT22;39100;53.480;6.158;2023-02-01T07:27:36;6.40;99.90
52869;DHT22;39100;53.480;6.158;2023-02-01T07:30:04;6.40;99.90
52869;DHT22;39100;53.480;6.158;2023-02-01T07:32:30;6.40;99.90
52869;DHT22;39100;53.480;6.158;2023-02-01T07:34:57;6.40;99.90
52869;DHT22;39100;53.480;6.158;2023-02-01T07:37:23;6.50;99.90
52869;DHT22;39100;53.480;6.158;2023-02-01T07:39:50;6.50;99.90
52869;DHT22;39100;53.480;6.158;2023-02-01T07:42:16;6.50;99.90
52869;DHT22;39100;53.480;6.158;2023-02-01T07:44:42;6.50;99.90
52869;DHT22;39100;53.480;6.158;2023-02-01T07:47:07;6.50;99.90
52869;DHT22;39100;53.480;6.158;2023-02-01T07:49:33;6.50;99.90
52869;DHT22;39100;53.480;6.158;2023-02-01T07:51:58;6.50;99.90
52869;DHT22;39100;53.480;6.158;2023-02-01T07:54:24;6.60;99.90
52869;DHT22;39100;53.480;6.158;2023-02-01T07:56:49;6.60;99.90
52869;DHT22;39100;53.480;6.158;2023-02-01T07:59:15;6.60;99.90
52869;DHT22;39100;53.480;6.158;2023-02-01T08:01:41;6.60;99.90
52869;DHT22;39100;53.480;6.158;2023-02-01T08:04:09;6.60;99.90
52869;DHT22;39100;53.480;6.158;2023-02-01T08:06:35;6.60;99.90
52869;DHT22;39100;53.480;6.158;2023-02-01T08:09:02;6.60;99.90
52869;DHT22;39100;53.480;6.158;2023-02-01T08:11:28;6.60;99.90
52869;DHT22;39100;53.480;6.158;2023-02-01T08:13:53;6.60;99.90
52869;DHT22;39100;53.480;6.158;2023-02-01T08:16:20;6.60;99.90
52869;DHT22;39100;53.480;6.158;2023-02-01T08:18:46;6.60;99.90
52869;DHT22;39100;53.480;6.158;2023-02-01T08:21:14;6.60;99.90
52869;DHT22;39100;53.480;6.158;2023-02-01T08:23:41;6.60;99.90
52869;DHT22;39100;53.480;6.158;2023-02-01T08:26:09;6.60;99.90
52869;DHT22;39100;53.480;6.158;2023-02-01T08:28:35;6.60;99.90
52869;DHT22;39100;53.480;6.158;2023-02-01T08:31:09;6.60;99.90
52869;DHT22;39100;53.480;6.158;2023-02-01T08:33:35;6.60;99.90
52869;DHT22;39100;53.480;6.158;2023-02-01T08:36:03;6.60;99.90
52869;DHT22;39100;53.480;6.158;2023-02-01T08:38:30;6.60;99.90
52869;DHT22;39100;53.480;6.158;2023-02-01T08:40:55;6.60;99.90
52869;DHT22;39100;53.480;6.158;2023-02-01T08:43:21;6.60;99.90
52869;DHT22;39100;53.480;6.158;2023-02-01T08:45:47;6.60;99.90
52869;DHT22;39100;53.480;6.158;2023-02-01T08:48:12;6.60;99.90
52869;DHT22;39100;53.480;6.158;2023-02-01T08:50:38;6.60;99.90
52869;DHT22;39100;53.480;6.158;2023-02-01T08:53:03;6.50;99.90
52869;DHT22;39100;53.480;6.158;2023-02-01T08:55:29;6.50;99.90
52869;DHT22;39100;53.480;6.158;2023-02-01T08:57:55;6.60;99.90
52869;DHT22;39100;53.480;6.158;2023-02-01T09:00:21;6.60;99.90
52869;DHT22;39100;53.480;6.158;2023-02-01T09:02:47;6.60;99.90
52869;DHT22;39100;53.480;6.158;2023-02-01T09:05:13;6.60;99.90
52869;DHT22;39100;53.480;6.158;2023-02-01T09:07:39;6.60;99.90
52869;DHT22;39100;53.480;6.158;2023-02-01T09:10:06;6.60;99.90
52869;DHT22;39100;53.480;6.158;2023-02-01T09:12:32;6.60;99.90
52869;DHT22;39100;53.480;6.158;2023-02-01T09:14:58;6.60;99.90
52869;DHT22;39100;53.480;6.158;2023-02-01T09:17:25;6.60;99.90
52869;DHT22;39100;53.480;6.158;2023-02-01T09:19:51;6.60;99.90
52869;DHT22;39100;53.480;6.158;2023-02-01T09:22:17;6.60;99.90
52869;DHT22;39100;53.480;6.158;2023-02-01T09:24:42;6.60;99.90
52869;DHT22;39100;53.480;6.158;2023-02-01T09:27:08;6.60;99.90
52869;DHT22;39100;53.480;6.158;2023-02-01T09:29:33;6.50;99.90
52869;DHT22;39100;53.480;6.158;2023-02-01T09:31:59;6.50;99.90
52869;DHT22;39100;53.480;6.158;2023-02-01T09:34:25;6.50;99.90
52869;DHT22;39100;53.480;6.158;2023-02-01T09:36:50;6.40;99.90
52869;DHT22;39100;53.480;6.158;2023-02-01T09:39:16;6.40;99.90
52869;DHT22;39100;53.480;6.158;2023-02-01T09:42:12;6.40;99.90
52869;DHT22;39100;53.480;6.158;2023-02-01T09:47:17;6.30;99.90
52869;DHT22;39100;53.480;6.158;2023-02-01T09:49:58;6.20;99.90
52869;DHT22;39100;53.480;6.158;2023-02-01T09:52:36;6.20;99.90
52869;DHT22;39100;53.480;6.158;2023-02-01T09:55:09;6.10;99.90
52869;DHT22;39100;53.480;6.158;2023-02-01T09:57:53;6.10;99.90
52869;DHT22;39100;53.480;6.158;2023-02-01T10:00:29;6.10;99.90
52869;DHT22;39100;53.480;6.158;2023-02-01T10:02:56;6.10;99.90
52869;DHT22;39100;53.480;6.158;2023-02-01T10:06:09;6.00;99.90
52869;DHT22;39100;53.480;6.158;2023-02-01T10:09:00;6.00;99.90
52869;DHT22;39100;53.480;6.158;2023-02-01T10:11:32;6.00;99.90
52869;DHT22;39100;53.480;6.158;2023-02-01T10:17:08;6.10;99.90
52869;DHT22;39100;53.480;6.158;2023-02-01T10:19:41;6.20;99.90
52869;DHT22;39100;53.480;6.158;2023-02-01T10:22:42;6.30;99.90
52869;DHT22;39100;53.480;6.158;2023-02-01T10:25:21;6.40;99.90
52869;DHT22;39100;53.480;6.158;2023-02-01T10:27:49;6.40;99.90
52869;DHT22;39100;53.480;6.158;2023-02-01T10:30:23;6.50;99.90
52869;DHT22;39100;53.480;6.158;2023-02-01T10:32:56;6.60;99.90
52869;DHT22;39100;53.480;6.158;2023-02-01T10:35:31;6.60;99.90
52869;DHT22;39100;53.480;6.158;2023-02-01T10:38:00;6.60;99.90
52869;DHT22;39100;53.480;6.158;2023-02-01T10:40:27;6.80;99.90
52869;DHT22;39100;53.480;6.158;2023-02-01T10:42:57;7.00;99.90
52869;DHT22;39100;53.480;6.158;2023-02-01T10:45:27;7.10;99.90
52869;DHT22;39100;53.480;6.158;2023-02-01T10:47:55;7.30;99.90
52869;DHT22;39100;53.480;6.158;2023-02-01T10:50:43;7.40;99.90
52869;DHT22;39100;53.480;6.158;2023-02-01T10:53:23;6.90;99.90
52869;DHT22;39100;53.480;6.158;2023-02-01T10:55:52;6.50;99.90
52869;DHT22;39100;53.480;6.158;2023-02-01T10:58:30;6.10;99.90
52869;DHT22;39100;53.480;6.158;2023-02-01T11:01:02;5.80;99.90
52869;DHT22;39100;53.480;6.158;2023-02-01T11:03:36;5.60;99.90
52869;DHT22;39100;53.480;6.158;2023-02-01T11:08:47;5.40;99.90
52869;DHT22;39100;53.480;6.158;2023-02-01T11:11:14;5.20;99.90
52869;DHT22;39100;53.480;6.158;2023-02-01T11:13:40;5.10;99.90
52869;DHT22;39100;53.480;6.158;2023-02-01T11:16:08;5.00;99.90
52869;DHT22;39100;53.480;6.158;2023-02-01T11:18:37;5.00;99.90
52869;DHT22;39100;53.480;6.158;2023-02-01T11:21:06;4.90;99.90
52869;DHT22;39100;53.480;6.158;2023-02-01T11:23:33;5.00;99.90
52869;DHT22;39100;53.480;6.158;2023-02-01T11:26:11;5.00;99.90
52869;DHT22;39100;53.480;6.158;2023-02-01T11:28:40;5.00;99.90
52869;DHT22;39100;53.480;6.158;2023-02-01T11:31:10;5.00;99.90
52869;DHT22;39100;53.480;6.158;2023-02-01T11:33:38;5.10;99.90
52869;DHT22;39100;53.480;6.158;2023-02-01T11:36:14;5.10;99.90
52869;DHT22;39100;53.480;6.158;2023-02-01T11:38:47;5.10;99.90
52869;DHT22;39100;53.480;6.158;2023-02-01T11:41:26;5.20;99.90
52869;DHT22;39100;53.480;6.158;2023-02-01T11:43:55;5.10;99.90
52869;DHT22;39100;53.480;6.158;2023-02-01T11:46:30;5.10;99.90
52869;DHT22;39100;53.480;6.158;2023-02-01T11:49:13;5.10;99.90
52869;DHT22;39100;53.480;6.158;2023-02-01T11:52:21;5.20;99.90
52869;DHT22;39100;53.480;6.158;2023-02-01T11:58:12;5.60;99.90
52869;DHT22;39100;53.480;6.158;2023-02-01T12:01:08;5.90;99.90
52869;DHT22;39100;53.480;6.158;2023-02-01T12:06:34;6.40;99.90
52869;DHT22;39100;53.480;6.158;2023-02-01T12:09:31;6.50;99.90
52869;DHT22;39100;53.480;6.158;2023-02-01T12:17:50;7.40;99.90
52869;DHT22;39100;53.480;6.158;2023-02-01T12:23:16;7.70;99.90
52869;DHT22;39100;53.480;6.158;2023-02-01T12:31:41;7.90;99.90
52869;DHT22;39100;53.480;6.158;2023-02-01T12:37:09;7.80;99.90
52869;DHT22;39100;53.480;6.158;2023-02-01T12:42:32;7.80;99.90
52869;DHT22;39100;53.480;6.158;2023-02-01T12:53:15;8.20;99.90
52869;DHT22;39100;53.480;6.158;2023-02-01T12:55:54;8.20;99.90
52869;DHT22;39100;53.480;6.158;2023-02-01T13:00:53;8.10;99.90
52869;DHT22;39100;53.480;6.158;2023-02-01T13:11:40;8.30;99.90
52869;DHT22;39100;53.480;6.158;2023-02-01T13:16:52;8.40;99.90
52869;DHT22;39100;53.480;6.158;2023-02-01T13:21:53;8.50;99.90
52869;DHT22;39100;53.480;6.158;2023-02-01T13:26:55;8.50;99.90
52869;DHT22;39100;53.480;6.158;2023-02-01T13:29:23;8.50;99.90
52869;DHT22;39100;53.480;6.158;2023-02-01T13:35:22;8.70;99.90
52869;DHT22;39100;53.480;6.158;2023-02-01T13:42:54;8.90;99.90
52869;DHT22;39100;53.480;6.158;2023-02-01T13:45:26;8.90;99.90
52869;DHT22;39100;53.480;6.158;2023-02-01T13:47:56;8.90;99.90
52869;DHT22;39100;53.480;6.158;2023-02-01T13:50:34;8.90;99.90
52869;DHT22;39100;53.480;6.158;2023-02-01T13:53:17;8.70;99.90
52869;DHT22;39100;53.480;6.158;2023-02-01T13:55:46;8.60;99.90
52869;DHT22;39100;53.480;6.158;2023-02-01T13:58:30;8.50;99.90
52869;DHT22;39100;53.480;6.158;2023-02-01T14:03:57;8.30;99.90
52869;DHT22;39100;53.480;6.158;2023-02-01T14:11:51;8.60;99.90
52869;DHT22;39100;53.480;6.158;2023-02-01T14:19:33;8.70;99.90
52869;DHT22;39100;53.480;6.158;2023-02-01T14:24:50;8.50;99.90
52869;DHT22;39100;53.480;6.158;2023-02-01T14:27:21;8.40;99.90
52869;DHT22;39100;53.480;6.158;2023-02-01T14:29:52;8.30;99.90
52869;DHT22;39100;53.480;6.158;2023-02-01T14:32:36;8.20;99.90
52869;DHT22;39100;53.480;6.158;2023-02-01T14:35:07;8.10;99.90
52869;DHT22;39100;53.480;6.158;2023-02-01T14:37:38;8.10;99.90
52869;DHT22;39100;53.480;6.158;2023-02-01T14:40:15;8.00;99.90
52869;DHT22;39100;53.480;6.158;2023-02-01T14:47:52;7.80;99.90
52869;DHT22;39100;53.480;6.158;2023-02-01T14:58:32;7.90;99.90
52869;DHT22;39100;53.480;6.158;2023-02-01T15:03:57;7.90;99.90
52869;DHT22;39100;53.480;6.158;2023-02-01T15:06:32;8.00;99.90
52869;DHT22;39100;53.480;6.158;2023-02-01T15:09:07;8.00;99.90
52869;DHT22;39100;53.480;6.158;2023-02-01T15:12:38;8.00;99.90
52869;DHT22;39100;53.480;6.158;2023-02-01T15:15:13;7.90;99.90
52869;DHT22;39100;53.480;6.158;2023-02-01T15:17:40;8.00;99.90
52869;DHT22;39100;53.480;6.158;2023-02-01T15:20:18;8.00;99.90
52869;DHT22;39100;53.480;6.158;2023-02-01T15:22:58;7.90;99.90
52869;DHT22;39100;53.480;6.158;2023-02-01T15:25:27;7.90;99.90
52869;DHT22;39100;53.480;6.158;2023-02-01T15:27:52;7.80;99.90
52869;DHT22;39100;53.480;6.158;2023-02-01T15:30:21;7.70;99.90
52869;DHT22;39100;53.480;6.158;2023-02-01T15:32:48;7.60;99.90
52869;DHT22;39100;53.480;6.158;2023-02-01T15:41:20;7.70;99.90
52869;DHT22;39100;53.480;6.158;2023-02-01T15:44:04;7.60;99.90
52869;DHT22;39100;53.480;6.158;2023-02-01T15:46:38;7.60;99.90
52869;DHT22;39100;53.480;6.158;2023-02-01T15:49:05;7.50;99.90
52869;DHT22;39100;53.480;6.158;2023-02-01T15:51:31;7.50;99.90
52869;DHT22;39100;53.480;6.158;2023-02-01T15:54:05;7.50;99.90
52869;DHT22;39100;53.480;6.158;2023-02-01T15:56:40;7.40;99.90
52869;DHT22;39100;53.480;6.158;2023-02-01T15:59:17;7.40;99.90
52869;DHT22;39100;53.480;6.158;2023-02-01T16:01:44;7.40;99.90
52869;DHT22;39100;53.480;6.158;2023-02-01T16:07:22;7.30;99.90
52869;DHT22;39100;53.480;6.158;2023-02-01T16:09:37;7.30;99.90
52869;DHT22;39100;53.480;6.158;2023-02-01T16:13:00;7.30;99.90
52869;DHT22;39100;53.480;6.158;2023-02-01T16:15:06;7.20;99.90
52869;DHT22;39100;53.480;6.158;2023-02-01T16:17:32;7.20;99.90
52869;DHT22;39100;53.480;6.158;2023-02-01T16:19:58;7.20;99.90
52869;DHT22;39100;53.480;6.158;2023-02-01T16:22:24;7.20;99.90
52869;DHT22;39100;53.480;6.158;2023-02-01T16:24:50;7.20;99.90
52869;DHT22;39100;53.480;6.158;2023-02-01T16:27:15;7.20;99.90
52869;DHT22;39100;53.480;6.158;2023-02-01T16:29:44;7.20;99.90
52869;DHT22;39100;53.480;6.158;2023-02-01T16:32:17;7.10;99.90
52869;DHT22;39100;53.480;6.158;2023-02-01T16:34:44;7.10;99.90
52869;DHT22;39100;53.480;6.158;2023-02-01T16:37:13;7.10;99.90
52869;DHT22;39100;53.480;6.158;2023-02-01T16:39:38;7.10;99.90
52869;DHT22;39100;53.480;6.158;2023-02-01T16:42:11;7.10;99.90
52869;DHT22;39100;53.480;6.158;2023-02-01T16:44:38;7.10;99.90
52869;DHT22;39100;53.480;6.158;2023-02-01T16:47:11;7.10;99.90
52869;DHT22;39100;53.480;6.158;2023-02-01T16:49:40;7.10;99.90
52869;DHT22;39100;53.480;6.158;2023-02-01T16:52:15;7.10;99.90
52869;DHT22;39100;53.480;6.158;2023-02-01T16:54:41;7.10;99.90
52869;DHT22;39100;53.480;6.158;2023-02-01T16:57:12;7.10;99.90
52869;DHT22;39100;53.480;6.158;2023-02-01T16:59:38;7.10;99.90
52869;DHT22;39100;53.480;6.158;2023-02-01T17:02:04;7.10;99.90
52869;DHT22;39100;53.480;6.158;2023-02-01T17:04:30;7.10;99.90
52869;DHT22;39100;53.480;6.158;2023-02-01T17:06:55;7.10;99.90
52869;DHT22;39100;53.480;6.158;2023-02-01T17:09:21;7.00;99.90
52869;DHT22;39100;53.480;6.158;2023-02-01T17:11:47;7.10;99.90
52869;DHT22;39100;53.480;6.158;2023-02-01T17:14:18;7.10;99.90
52869;DHT22;39100;53.480;6.158;2023-02-01T17:16:45;7.00;99.90
52869;DHT22;39100;53.480;6.158;2023-02-01T17:19:17;7.10;99.90
52869;DHT22;39100;53.480;6.158;2023-02-01T17:21:46;7.10;99.90
52869;DHT22;39100;53.480;6.158;2023-02-01T17:24:14;7.10;99.90
52869;DHT22;39100;53.480;6.158;2023-02-01T17:26:41;7.10;99.90
52869;DHT22;39100;53.480;6.158;2023-02-01T17:29:07;7.10;99.90
52869;DHT22;39100;53.480;6.158;2023-02-01T17:31:36;7.20;99.90
52869;DHT22;39100;53.480;6.158;2023-02-01T17:34:02;7.20;99.90
52869;DHT22;39100;53.480;6.158;2023-02-01T17:36:28;7.20;99.90
52869;DHT22;39100;53.480;6.158;2023-02-01T17:38:53;7.20;99.90
52869;DHT22;39100;53.480;6.158;2023-02-01T17:41:19;7.20;99.90
52869;DHT22;39100;53.480;6.158;2023-02-01T17:43:45;7.20;99.90
52869;DHT22;39100;53.480;6.158;2023-02-01T17:46:15;7.20;99.90
52869;DHT22;39100;53.480;6.158;2023-02-01T17:48:43;7.20;99.90
52869;DHT22;39100;53.480;6.158;2023-02-01T17:51:20;7.20;99.90
52869;DHT22;39100;53.480;6.158;2023-02-01T17:53:46;7.20;99.90
52869;DHT22;39100;53.480;6.158;2023-02-01T17:56:17;7.20;99.90
52869;DHT22;39100;53.480;6.158;2023-02-01T17:58:43;7.20;99.90
52869;DHT22;39100;53.480;6.158;2023-02-01T18:01:14;7.30;99.90
52869;DHT22;39100;53.480;6.158;2023-02-01T18:03:40;7.30;99.90
52869;DHT22;39100;53.480;6.158;2023-02-01T18:06:13;7.30;99.90
52869;DHT22;39100;53.480;6.158;2023-02-01T18:08:39;7.50;99.90
52869;DHT22;39100;53.480;6.158;2023-02-01T18:11:10;7.30;99.90
52869;DHT22;39100;53.480;6.158;2023-02-01T18:13:36;7.30;99.90
52869;DHT22;39100;53.480;6.158;2023-02-01T18:16:02;7.30;99.90
52869;DHT22;39100;53.480;6.158;2023-02-01T18:18:29;7.30;99.90